sensor_id;sensor_type;location;lat;lon;timestamp;pressure;altitude;pressure_sealevel;temperature;humidity
78016;BME280;67223;51.102;5.882;2023-02-12T00:00:50;103655.47;;;14.59;54.86
78016;BME280;67223;51.102;5.882;2023-02-12T00:03:16;103647.41;;;14.59;55.01
78016;BME280;67223;51.102;5.882;2023-02-12T00:05:41;103652.78;;;14.59;55.42
78016;BME280;67223;51.102;5.882;2023-02-12T00:08:10;103651.94;;;14.59;55.50
78016;BME280;67223;51.102;5.882;2023-02-12T00:10:39;103660.97;;;14.58;55.65
78016;BME280;67223;51.102;5.882;2023-02-12T00:13:07;103655.66;;;14.56;55.65
78016;BME280;67223;51.102;5.882;2023-02-12T00:15:32;103665.53;;;14.56;55.68
78016;BME280;67223;51.102;5.882;2023-02-12T00:17:59;103669.16;;;14.55;55.17
78016;BME280;67223;51.102;5.882;2023-02-12T00:20:24;103673.78;;;14.53;55.23
78016;BME280;67223;51.102;5.882;2023-02-12T00:22:49;103666.59;;;14.53;55.96
78016;BME280;67223;51.102;5.882;2023-02-12T00:25:15;103664.84;;;14.52;55.82
78016;BME280;67223;51.102;5.882;2023-02-12T00:27:41;103663.97;;;14.52;55.69
78016;BME280;67223;51.102;5.882;2023-02-12T00:30:06;103666.72;;;14.50;55.19
78016;BME280;67223;51.102;5.882;2023-02-12T00:32:32;103665.00;;;14.49;55.93
78016;BME280;67223;51.102;5.882;2023-02-12T00:34:57;103669.53;;;14.49;55.60
78016;BME280;67223;51.102;5.882;2023-02-12T00:37:23;103667.78;;;14.48;55.52
78016;BME280;67223;51.102;5.882;2023-02-12T00:39:48;103674.97;;;14.47;56.04
78016;BME280;67223;51.102;5.882;2023-02-12T00:42:13;103674.09;;;14.47;55.65
78016;BME280;67223;51.102;5.882;2023-02-12T00:44:39;103668.72;;;14.47;55.87
78016;BME280;67223;51.102;5.882;2023-02-12T00:47:04;103663.34;;;14.47;55.88
78016;BME280;67223;51.102;5.882;2023-02-12T00:49:30;103672.28;;;14.47;55.64
78016;BME280;67223;51.102;5.882;2023-02-12T00:52:01;103668.78;;;14.45;56.12
78016;BME280;67223;51.102;5.882;2023-02-12T00:54:28;103666.09;;;14.45;55.60
78016;BME280;67223;51.102;5.882;2023-02-12T00:56:54;103666.97;;;14.46;55.69
78016;BME280;67223;51.102;5.882;2023-02-12T00:59:24;103655.44;;;14.44;56.06
78016;BME280;67223;51.102;5.882;2023-02-12T01:01:50;103648.31;;;14.43;56.04
78016;BME280;67223;51.102;5.882;2023-02-12T01:04:17;103650.06;;;14.44;55.98
78016;BME280;67223;51.102;5.882;2023-02-12T01:06:43;103653.53;;;14.46;56.11
78016;BME280;67223;51.102;5.882;2023-02-12T01:09:08;103650.94;;;14.44;56.50
78016;BME280;67223;51.102;5.882;2023-02-12T01:11:34;103650.06;;;14.44;56.06
78016;BME280;67223;51.102;5.882;2023-02-12T01:13:59;103641.13;;;14.43;55.76
78016;BME280;67223;51.102;5.882;2023-02-12T01:16:25;103654.66;;;14.42;55.51
78016;BME280;67223;51.102;5.882;2023-02-12T01:18:51;103645.78;;;14.40;56.01
78016;BME280;67223;51.102;5.882;2023-02-12T01:21:19;103648.47;;;14.40;56.09
78016;BME280;67223;51.102;5.882;2023-02-12T01:23:45;103653.84;;;14.40;56.25
78016;BME280;67223;51.102;5.882;2023-02-12T01:26:12;103655.69;;;14.39;56.42
78016;BME280;67223;51.102;5.882;2023-02-12T01:28:38;103655.69;;;14.39;56.08
78016;BME280;67223;51.102;5.882;2023-02-12T01:31:13;103655.69;;;14.39;55.83
78016;BME280;67223;51.102;5.882;2023-02-12T01:33:39;103653.94;;;14.38;56.55
78016;BME280;67223;51.102;5.882;2023-02-12T01:36:05;103648.66;;;14.37;55.74
78016;BME280;67223;51.102;5.882;2023-02-12T01:38:31;103648.66;;;14.37;56.17
78016;BME280;67223;51.102;5.882;2023-02-12T01:41:12;103649.50;;;14.37;55.31
78016;BME280;67223;51.102;5.882;2023-02-12T01:43:38;103653.16;;;14.36;56.11
78016;BME280;67223;51.102;5.882;2023-02-12T01:46:05;103653.19;;;14.35;56.34
78016;BME280;67223;51.102;5.882;2023-02-12T01:48:35;103646.00;;;14.35;55.64
78016;BME280;67223;51.102;5.882;2023-02-12T01:51:02;103649.66;;;14.34;56.27
78016;BME280;67223;51.102;5.882;2023-02-12T01:53:37;103640.72;;;14.34;55.77
78016;BME280;67223;51.102;5.882;2023-02-12T01:56:05;103645.22;;;14.33;56.00
78016;BME280;67223;51.102;5.882;2023-02-12T01:58:35;103643.47;;;14.32;55.95
78016;BME280;67223;51.102;5.882;2023-02-12T02:01:03;103639.91;;;14.32;56.10
78016;BME280;67223;51.102;5.882;2023-02-12T02:03:31;103637.22;;;14.32;55.91
78016;BME280;67223;51.102;5.882;2023-02-12T02:06:00;103640.00;;;14.30;56.14
78016;BME280;67223;51.102;5.882;2023-02-12T02:08:28;103637.31;;;14.30;55.91
78016;BME280;67223;51.102;5.882;2023-02-12T02:10:54;103644.50;;;14.30;56.24
78016;BME280;67223;51.102;5.882;2023-02-12T02:13:20;103637.47;;;14.27;55.82
78016;BME280;67223;51.102;5.882;2023-02-12T02:16:19;103642.78;;;14.29;56.17
78016;BME280;67223;51.102;5.882;2023-02-12T02:18:55;103641.91;;;14.28;55.97
78016;BME280;67223;51.102;5.882;2023-02-12T02:31:55;103643.97;;;14.23;55.97
78016;BME280;67223;51.102;5.882;2023-02-12T02:34:28;103638.53;;;14.25;56.00
78016;BME280;67223;51.102;5.882;2023-02-12T02:37:56;103636.84;;;14.22;56.38
78016;BME280;67223;51.102;5.882;2023-02-12T02:40:22;103633.28;;;14.21;56.25
78016;BME280;67223;51.102;5.882;2023-02-12T02:42:59;103642.22;;;14.22;55.74
78016;BME280;67223;51.102;5.882;2023-02-12T02:45:33;103629.72;;;14.21;56.22
78016;BME280;67223;51.102;5.882;2023-02-12T02:48:11;103634.22;;;14.20;55.84
78016;BME280;67223;51.102;5.882;2023-02-12T02:50:43;103636.03;;;14.20;55.84
78016;BME280;67223;51.102;5.882;2023-02-12T02:53:19;103634.31;;;14.19;55.87
78016;BME280;67223;51.102;5.882;2023-02-12T02:55:49;103627.97;;;14.20;56.11
78016;BME280;67223;51.102;5.882;2023-02-12T02:58:19;103626.25;;;14.19;56.31
78016;BME280;67223;51.102;5.882;2023-02-12T03:05:53;103637.97;;;14.18;55.95
78016;BME280;67223;51.102;5.882;2023-02-12T03:08:30;103636.22;;;14.17;56.05
78016;BME280;67223;51.102;5.882;2023-02-12T03:11:07;103642.47;;;14.17;55.58
78016;BME280;67223;51.102;5.882;2023-02-12T03:13:42;103645.22;;;14.16;56.12
78016;BME280;67223;51.102;5.882;2023-02-12T03:16:22;103639.78;;;14.17;56.05
78016;BME280;67223;51.102;5.882;2023-02-12T03:19:10;103639.84;;;14.16;55.66
78016;BME280;67223;51.102;5.882;2023-02-12T03:21:42;103632.72;;;14.15;55.87
78016;BME280;67223;51.102;5.882;2023-02-12T03:24:38;103630.13;;;14.13;56.02
78016;BME280;67223;51.102;5.882;2023-02-12T03:27:14;103631.88;;;14.14;56.08
78016;BME280;67223;51.102;5.882;2023-02-12T03:29:41;103628.31;;;14.14;55.98
78016;BME280;67223;51.102;5.882;2023-02-12T03:37:18;103622.94;;;14.14;56.24
78016;BME280;67223;51.102;5.882;2023-02-12T03:42:33;103623.97;;;14.11;56.06
78016;BME280;67223;51.102;5.882;2023-02-12T03:48:16;103619.53;;;14.10;55.60
78016;BME280;67223;51.102;5.882;2023-02-12T03:53:26;103625.88;;;14.09;56.01
78016;BME280;67223;51.102;5.882;2023-02-12T03:55:56;103616.94;;;14.09;56.08
78016;BME280;67223;51.102;5.882;2023-02-12T03:58:26;103625.00;;;14.09;56.09
78016;BME280;67223;51.102;5.882;2023-02-12T04:00:53;103622.31;;;14.09;56.05
78016;BME280;67223;51.102;5.882;2023-02-12T04:03:19;103622.31;;;14.09;55.99
78016;BME280;67223;51.102;5.882;2023-02-12T04:05:45;103621.44;;;14.08;55.96
78016;BME280;67223;51.102;5.882;2023-02-12T04:08:11;103628.63;;;14.08;56.08
78016;BME280;67223;51.102;5.882;2023-02-12T04:13:18;103627.75;;;14.07;56.04
78016;BME280;67223;51.102;5.882;2023-02-12T04:16:24;103634.94;;;14.07;55.85
78016;BME280;67223;51.102;5.882;2023-02-12T04:18:54;103646.63;;;14.06;56.06
78016;BME280;67223;51.102;5.882;2023-02-12T04:21:36;103638.69;;;14.04;55.62
78016;BME280;67223;51.102;5.882;2023-02-12T04:24:24;103642.22;;;14.05;56.15
78016;BME280;67223;51.102;5.882;2023-02-12T04:30:02;103647.59;;;14.05;56.45
78016;BME280;67223;51.102;5.882;2023-02-12T04:32:52;103650.38;;;14.03;56.05
78016;BME280;67223;51.102;5.882;2023-02-12T04:35:24;103645.00;;;14.03;56.18
78016;BME280;67223;51.102;5.882;2023-02-12T04:40:26;103646.88;;;14.01;55.68
78016;BME280;67223;51.102;5.882;2023-02-12T04:42:52;103651.31;;;14.02;55.95
78016;BME280;67223;51.102;5.882;2023-02-12T04:45:27;103653.13;;;14.02;55.92
78016;BME280;67223;51.102;5.882;2023-02-12T04:47:53;103648.69;;;14.01;56.06
78016;BME280;67223;51.102;5.882;2023-02-12T04:50:19;103654.94;;;14.01;55.95
78016;BME280;67223;51.102;5.882;2023-02-12T04:52:45;103656.75;;;14.01;56.17
78016;BME280;67223;51.102;5.882;2023-02-12T04:55:10;103657.69;;;14.00;56.19
78016;BME280;67223;51.102;5.882;2023-02-12T04:57:36;103654.69;;;14.06;56.42
78016;BME280;67223;51.102;5.882;2023-02-12T05:00:03;103658.19;;;14.08;56.05
78016;BME280;67223;51.102;5.882;2023-02-12T05:02:30;103651.25;;;14.04;56.55
78016;BME280;67223;51.102;5.882;2023-02-12T05:04:55;103662.06;;;14.02;56.11
78016;BME280;67223;51.102;5.882;2023-02-12T05:07:21;103652.31;;;14.00;56.45
78016;BME280;67223;51.102;5.882;2023-02-12T05:09:46;103663.06;;;14.00;56.05
78016;BME280;67223;51.102;5.882;2023-02-12T05:12:12;103653.28;;;13.99;56.35
78016;BME280;67223;51.102;5.882;2023-02-12T05:14:37;103652.41;;;13.98;55.81
78016;BME280;67223;51.102;5.882;2023-02-12T05:17:02;103651.56;;;13.98;56.08
78016;BME280;67223;51.102;5.882;2023-02-12T05:19:28;103650.69;;;13.97;56.09
78016;BME280;67223;51.102;5.882;2023-02-12T05:21:53;103646.25;;;13.96;56.04
78016;BME280;67223;51.102;5.882;2023-02-12T05:24:19;103657.88;;;13.97;56.31
78016;BME280;67223;51.102;5.882;2023-02-12T05:26:44;103658.75;;;13.97;56.10
78016;BME280;67223;51.102;5.882;2023-02-12T05:29:09;103659.59;;;13.98;55.93
78016;BME280;67223;51.102;5.882;2023-02-12T05:31:35;103662.38;;;13.96;55.98
78016;BME280;67223;51.102;5.882;2023-02-12T05:34:01;103662.44;;;13.95;55.87
78016;BME280;67223;51.102;5.882;2023-02-12T12:37:25;103686.41;;;14.16;58.56
78016;BME280;67223;51.102;5.882;2023-02-12T12:45:55;103683.09;;;14.46;58.00
78016;BME280;67223;51.102;5.882;2023-02-12T12:48:47;103673.84;;;14.51;57.80
78016;BME280;67223;51.102;5.882;2023-02-12T13:07:18;103661.16;;;14.71;56.57
78016;BME280;67223;51.102;5.882;2023-02-12T13:12:39;103656.38;;;14.76;56.32
78016;BME280;67223;51.102;5.882;2023-02-12T13:15:24;103655.25;;;14.80;56.71
78016;BME280;67223;51.102;5.882;2023-02-12T13:26:26;103642.34;;;14.86;56.03
78016;BME280;67223;51.102;5.882;2023-02-12T13:29:07;103631.59;;;14.86;55.87
78016;BME280;67223;51.102;5.882;2023-02-12T13:31:44;103634.28;;;14.86;56.03
78016;BME280;67223;51.102;5.882;2023-02-12T13:34:13;103636.09;;;14.86;56.29
78016;BME280;67223;51.102;5.882;2023-02-12T13:36:40;103631.66;;;14.85;55.96
78016;BME280;67223;51.102;5.882;2023-02-12T13:41:39;103634.38;;;14.85;55.98
78016;BME280;67223;51.102;5.882;2023-02-12T13:44:34;103628.97;;;14.85;55.96
78016;BME280;67223;51.102;5.882;2023-02-12T13:49:59;103629.97;;;14.84;55.84
78016;BME280;67223;51.102;5.882;2023-02-12T13:52:47;103632.22;;;14.91;56.39
78016;BME280;67223;51.102;5.882;2023-02-12T13:55:31;103634.66;;;15.12;56.45
78016;BME280;67223;51.102;5.882;2023-02-12T13:58:59;103630.75;;;15.48;56.59
78016;BME280;67223;51.102;5.882;2023-02-12T14:01:10;103622.88;;;15.91;56.50
78016;BME280;67223;51.102;5.882;2023-02-12T14:03:37;103633.84;;;16.32;56.33
78016;BME280;67223;51.102;5.882;2023-02-12T14:06:14;103622.22;;;16.74;55.92
78016;BME280;67223;51.102;5.882;2023-02-12T14:08:46;103622.59;;;17.10;56.03
78016;BME280;67223;51.102;5.882;2023-02-12T14:11:17;103633.13;;;17.42;55.75
78016;BME280;67223;51.102;5.882;2023-02-12T14:14:02;103627.09;;;17.65;55.34
78016;BME280;67223;51.102;5.882;2023-02-12T14:22:02;103629.13;;;18.01;53.82
78016;BME280;67223;51.102;5.882;2023-02-12T14:27:05;103622.22;;;18.10;53.38
78016;BME280;67223;51.102;5.882;2023-02-12T14:29:39;103631.09;;;18.12;53.13
78016;BME280;67223;51.102;5.882;2023-02-12T14:38:00;103636.50;;;18.12;51.72
78016;BME280;67223;51.102;5.882;2023-02-12T14:43:00;103627.84;;;18.06;51.17
78016;BME280;67223;51.102;5.882;2023-02-12T14:45:31;103629.78;;;18.04;50.98
78016;BME280;67223;51.102;5.882;2023-02-12T14:47:57;103625.47;;;18.02;50.91
78016;BME280;67223;51.102;5.882;2023-02-12T14:50:27;103627.50;;;17.98;50.93
78016;BME280;67223;51.102;5.882;2023-02-12T14:53:02;103623.41;;;17.93;50.77
78016;BME280;67223;51.102;5.882;2023-02-12T14:55:31;103623.69;;;17.88;50.29
78016;BME280;67223;51.102;5.882;2023-02-12T14:58:11;103613.31;;;17.82;50.36
78016;BME280;67223;51.102;5.882;2023-02-12T15:00:44;103613.31;;;17.82;50.36
78016;BME280;67223;51.102;5.882;2023-02-12T15:05:48;103613.16;;;17.71;50.10
78016;BME280;67223;51.102;5.882;2023-02-12T15:08:40;103611.28;;;17.59;49.87
78016;BME280;67223;51.102;5.882;2023-02-12T15:11:23;103609.16;;;17.50;49.94
78016;BME280;67223;51.102;5.882;2023-02-12T15:17:05;103604.59;;;17.38;49.81
78016;BME280;67223;51.102;5.882;2023-02-12T15:22:35;103609.72;;;17.28;49.66
78016;BME280;67223;51.102;5.882;2023-02-12T15:27:52;103606.59;;;17.07;49.69
78016;BME280;67223;51.102;5.882;2023-02-12T15:30:21;103596.41;;;16.98;49.67
78016;BME280;67223;51.102;5.882;2023-02-12T15:32:48;103606.72;;;16.92;49.55
78016;BME280;67223;51.102;5.882;2023-02-12T15:35:26;103595.44;;;16.85;49.49
78016;BME280;67223;51.102;5.882;2023-02-12T15:37:53;103601.22;;;16.79;49.54
78016;BME280;67223;51.102;5.882;2023-02-12T15:40:19;103597.00;;;16.75;49.70
78016;BME280;67223;51.102;5.882;2023-02-12T15:42:52;103600.25;;;16.80;50.25
78016;BME280;67223;51.102;5.882;2023-02-12T15:45:24;103604.59;;;16.97;50.30
78016;BME280;67223;51.102;5.882;2023-02-12T15:50:21;103595.34;;;17.54;50.73
78016;BME280;67223;51.102;5.882;2023-02-12T15:52:49;103597.97;;;17.95;50.53
78016;BME280;67223;51.102;5.882;2023-02-12T15:55:17;103599.84;;;18.33;50.89
78016;BME280;67223;51.102;5.882;2023-02-12T15:57:55;103593.81;;;18.67;50.42
78016;BME280;67223;51.102;5.882;2023-02-12T16:00:42;103588.09;;;18.96;50.88
78016;BME280;67223;51.102;5.882;2023-02-12T16:03:25;103590.50;;;19.24;50.69
78016;BME280;67223;51.102;5.882;2023-02-12T16:05:52;103590.84;;;19.43;50.34
78016;BME280;67223;51.102;5.882;2023-02-12T16:08:21;103600.03;;;19.53;50.56
78016;BME280;67223;51.102;5.882;2023-02-12T16:10:48;103586.03;;;19.59;50.39
78016;BME280;67223;51.102;5.882;2023-02-12T16:13:17;103584.81;;;19.63;50.08
78016;BME280;67223;51.102;5.882;2023-02-12T16:15:43;103585.56;;;19.65;50.10
78016;BME280;67223;51.102;5.882;2023-02-12T16:18:23;103590.00;;;19.66;50.28
78016;BME280;67223;51.102;5.882;2023-02-12T16:20:49;103579.38;;;19.63;49.99
78016;BME280;67223;51.102;5.882;2023-02-12T16:23:25;103585.03;;;19.60;49.78
78016;BME280;67223;51.102;5.882;2023-02-12T16:25:54;103582.44;;;19.59;50.15
78016;BME280;67223;51.102;5.882;2023-02-12T16:28:26;103588.13;;;19.56;50.10
78016;BME280;67223;51.102;5.882;2023-02-12T16:31:06;103582.06;;;19.52;50.17
78016;BME280;67223;51.102;5.882;2023-02-12T16:36:04;103584.47;;;19.44;50.02
78016;BME280;67223;51.102;5.882;2023-02-12T16:38:48;103579.47;;;19.38;49.89
78016;BME280;67223;51.102;5.882;2023-02-12T16:43:43;103594.06;;;19.24;50.02
78016;BME280;67223;51.102;5.882;2023-02-12T16:46:10;103591.06;;;19.16;50.42
78016;BME280;67223;51.102;5.882;2023-02-12T16:48:41;103580.06;;;19.07;50.20
78016;BME280;67223;51.102;5.882;2023-02-12T16:51:30;103583.56;;;18.96;50.21
78016;BME280;67223;51.102;5.882;2023-02-12T16:53:58;103587.03;;;18.85;50.27
78016;BME280;67223;51.102;5.882;2023-02-12T16:56:32;103583.69;;;18.82;50.35
78016;BME280;67223;51.102;5.882;2023-02-12T16:58:59;103575.59;;;18.69;50.31
78016;BME280;67223;51.102;5.882;2023-02-12T17:01:26;103584.72;;;18.56;50.51
78016;BME280;67223;51.102;5.882;2023-02-12T17:03:53;103582.72;;;18.45;50.90
78016;BME280;67223;51.102;5.882;2023-02-12T17:06:25;103576.25;;;18.35;50.75
78016;BME280;67223;51.102;5.882;2023-02-12T17:08:51;103584.91;;;18.27;50.94
78016;BME280;67223;51.102;5.882;2023-02-12T17:11:17;103584.47;;;18.21;51.08
78016;BME280;67223;51.102;5.882;2023-02-12T17:13:48;103583.16;;;18.14;51.38
78016;BME280;67223;51.102;5.882;2023-02-12T17:16:14;103586.41;;;18.06;51.66
78016;BME280;67223;51.102;5.882;2023-02-12T17:18:40;103578.94;;;17.97;51.83
78016;BME280;67223;51.102;5.882;2023-02-12T17:21:27;103581.41;;;17.87;51.92
78016;BME280;67223;51.102;5.882;2023-02-12T17:23:53;103582.88;;;17.79;51.98
78016;BME280;67223;51.102;5.882;2023-02-12T17:26:20;103580.72;;;17.71;52.03
78016;BME280;67223;51.102;5.882;2023-02-12T17:28:46;103575.00;;;17.63;52.16
78016;BME280;67223;51.102;5.882;2023-02-12T17:31:12;103587.13;;;17.56;52.43
78016;BME280;67223;51.102;5.882;2023-02-12T17:33:37;103580.41;;;17.49;52.66
78016;BME280;67223;51.102;5.882;2023-02-12T17:36:03;103583.53;;;17.43;52.94
78016;BME280;67223;51.102;5.882;2023-02-12T17:38:29;103589.25;;;17.38;52.89
78016;BME280;67223;51.102;5.882;2023-02-12T17:40:54;103591.47;;;17.32;53.50
78016;BME280;67223;51.102;5.882;2023-02-12T17:43:20;103580.13;;;17.27;53.64
78016;BME280;67223;51.102;5.882;2023-02-12T17:45:46;103586.69;;;17.23;53.82
78016;BME280;67223;51.102;5.882;2023-02-12T17:48:13;103587.00;;;17.18;54.03
78016;BME280;67223;51.102;5.882;2023-02-12T17:50:39;103588.25;;;17.12;54.02
78016;BME280;67223;51.102;5.882;2023-02-12T17:53:06;103592.97;;;17.09;54.26
78016;BME280;67223;51.102;5.882;2023-02-12T17:55:32;103585.31;;;17.03;54.86
78016;BME280;67223;51.102;5.882;2023-02-12T17:57:58;103581.91;;;16.99;54.88
78016;BME280;67223;51.102;5.882;2023-02-12T18:00:23;103584.03;;;16.94;55.45
78016;BME280;67223;51.102;5.882;2023-02-12T18:02:49;103585.28;;;16.89;55.29
78016;BME280;67223;51.102;5.882;2023-02-12T18:05:15;103590.91;;;16.86;55.82
78016;BME280;67223;51.102;5.882;2023-02-12T18:07:40;103596.59;;;16.81;56.01
78016;BME280;67223;51.102;5.882;2023-02-12T18:10:07;103593.25;;;16.77;56.00
78016;BME280;67223;51.102;5.882;2023-02-12T18:12:33;103588.16;;;16.73;56.27
78016;BME280;67223;51.102;5.882;2023-02-12T18:15:00;103593.84;;;16.68;56.14
78016;BME280;67223;51.102;5.882;2023-02-12T18:17:27;103593.13;;;16.65;56.65
78016;BME280;67223;51.102;5.882;2023-02-12T18:19:53;103587.06;;;16.61;57.11
78016;BME280;67223;51.102;5.882;2023-02-12T18:22:18;103581.69;;;16.61;56.87
78016;BME280;67223;51.102;5.882;2023-02-12T18:24:44;103579.56;;;16.66;57.48
78016;BME280;67223;51.102;5.882;2023-02-12T18:27:11;103585.28;;;16.89;58.05
78016;BME280;67223;51.102;5.882;2023-02-12T18:29:37;103574.25;;;17.20;58.34
78016;BME280;67223;51.102;5.882;2023-02-12T18:32:02;103582.41;;;17.59;58.78
78016;BME280;67223;51.102;5.882;2023-02-12T18:34:28;103585.00;;;18.00;58.86
78016;BME280;67223;51.102;5.882;2023-02-12T18:36:53;103584.16;;;18.38;58.56
78016;BME280;67223;51.102;5.882;2023-02-12T18:39:19;103581.88;;;18.70;58.27
78016;BME280;67223;51.102;5.882;2023-02-12T18:41:44;103593.00;;;18.90;58.37
78016;BME280;67223;51.102;5.882;2023-02-12T18:44:12;103579.28;;;19.05;57.99
78016;BME280;67223;51.102;5.882;2023-02-12T18:46:38;103589.22;;;19.17;58.21
78016;BME280;67223;51.102;5.882;2023-02-12T18:49:04;103586.03;;;19.23;57.71
78016;BME280;67223;51.102;5.882;2023-02-12T18:51:30;103584.00;;;19.26;57.21
78016;BME280;67223;51.102;5.882;2023-02-12T18:54:05;103582.88;;;19.29;57.42
78016;BME280;67223;51.102;5.882;2023-02-12T18:56:33;103572.03;;;19.29;56.85
78016;BME280;67223;51.102;5.882;2023-02-12T18:59:00;103578.34;;;19.29;56.54
78016;BME280;67223;51.102;5.882;2023-02-12T19:01:27;103577.59;;;19.27;56.28
78016;BME280;67223;51.102;5.882;2023-02-12T19:03:55;103567.84;;;19.25;56.59
78016;BME280;67223;51.102;5.882;2023-02-12T19:06:22;103574.47;;;19.21;56.47
78016;BME280;67223;51.102;5.882;2023-02-12T19:08:48;103573.94;;;19.16;56.31
78016;BME280;67223;51.102;5.882;2023-02-12T19:11:13;103576.13;;;19.11;56.39
78016;BME280;67223;51.102;5.882;2023-02-12T19:13:39;103569.44;;;19.04;55.94
78016;BME280;67223;51.102;5.882;2023-02-12T19:16:07;103571.84;;;18.96;56.12
78016;BME280;67223;51.102;5.882;2023-02-12T19:18:33;103565.28;;;18.87;55.58
78016;BME280;67223;51.102;5.882;2023-02-12T19:20:58;103572.22;;;18.78;55.76
78016;BME280;67223;51.102;5.882;2023-02-12T19:23:24;103570.19;;;18.69;55.80
78016;BME280;67223;51.102;5.882;2023-02-12T19:25:49;103578.00;;;18.61;55.52
78016;BME280;67223;51.102;5.882;2023-02-12T19:28:14;103571.47;;;18.51;55.48
78016;BME280;67223;51.102;5.882;2023-02-12T19:30:40;103572.16;;;18.42;55.85
78016;BME280;67223;51.102;5.882;2023-02-12T19:33:06;103571.06;;;18.32;55.92
78016;BME280;67223;51.102;5.882;2023-02-12T19:35:32;103574.19;;;18.26;55.77
78016;BME280;67223;51.102;5.882;2023-02-12T19:37:57;103574.63;;;18.20;55.97
78016;BME280;67223;51.102;5.882;2023-02-12T19:40:23;103576.03;;;18.13;55.81
78016;BME280;67223;51.102;5.882;2023-02-12T19:42:48;103562.16;;;18.04;56.10
78016;BME280;67223;51.102;5.882;2023-02-12T19:45:14;103566.28;;;17.97;55.89
78016;BME280;67223;51.102;5.882;2023-02-12T19:47:39;103564.97;;;17.90;56.23
78016;BME280;67223;51.102;5.882;2023-02-12T19:50:05;103567.22;;;17.84;56.09
78016;BME280;67223;51.102;5.882;2023-02-12T19:52:31;103571.44;;;17.75;56.27
78016;BME280;67223;51.102;5.882;2023-02-12T19:54:56;103567.63;;;17.65;56.19
78016;BME280;67223;51.102;5.882;2023-02-12T19:57:23;103565.34;;;17.59;56.59
78016;BME280;67223;51.102;5.882;2023-02-12T19:59:48;103559.56;;;17.51;56.53
78016;BME280;67223;51.102;5.882;2023-02-12T20:02:14;103558.13;;;17.45;56.76
78016;BME280;67223;51.102;5.882;2023-02-12T20:04:39;103561.38;;;17.38;56.76
78016;BME280;67223;51.102;5.882;2023-02-12T20:07:05;103557.31;;;17.31;56.99
78016;BME280;67223;51.102;5.882;2023-02-12T20:09:32;103548.75;;;17.24;57.21
78016;BME280;67223;51.102;5.882;2023-02-12T20:11:58;103559.13;;;17.17;57.45
78016;BME280;67223;51.102;5.882;2023-02-12T20:14:23;103552.38;;;17.10;57.33
78016;BME280;67223;51.102;5.882;2023-02-12T20:16:51;103554.50;;;17.05;57.70
78016;BME280;67223;51.102;5.882;2023-02-12T20:19:25;103554.91;;;16.99;57.45
78016;BME280;67223;51.102;5.882;2023-02-12T20:21:51;103556.19;;;16.94;58.16
78016;BME280;67223;51.102;5.882;2023-02-12T20:24:29;103557.47;;;16.88;58.11
78016;BME280;67223;51.102;5.882;2023-02-12T20:26:56;103556.91;;;16.83;58.08
78016;BME280;67223;51.102;5.882;2023-02-12T20:29:22;103562.59;;;16.78;58.42
78016;BME280;67223;51.102;5.882;2023-02-12T20:31:48;103560.16;;;16.74;58.45
78016;BME280;67223;51.102;5.882;2023-02-12T20:34:15;103557.75;;;16.69;58.70
78016;BME280;67223;51.102;5.882;2023-02-12T20:36:43;103561.72;;;16.64;59.11
78016;BME280;67223;51.102;5.882;2023-02-12T20:39:14;103560.19;;;16.60;59.42
78016;BME280;67223;51.102;5.882;2023-02-12T20:41:40;103558.72;;;16.54;58.81
78016;BME280;67223;51.102;5.882;2023-02-12T20:44:10;103562.56;;;16.50;59.61
78016;BME280;67223;51.102;5.882;2023-02-12T20:46:37;103564.69;;;16.45;59.21
78016;BME280;67223;51.102;5.882;2023-02-12T20:49:07;103554.19;;;16.41;59.84
78016;BME280;67223;51.102;5.882;2023-02-12T20:51:33;103551.88;;;16.34;59.52
78016;BME280;67223;51.102;5.882;2023-02-12T20:53:59;103553.13;;;16.29;60.25
78016;BME280;67223;51.102;5.882;2023-02-12T20:56:30;103557.84;;;16.25;60.10
78016;BME280;67223;51.102;5.882;2023-02-12T20:58:56;103553.63;;;16.21;60.04
78016;BME280;67223;51.102;5.882;2023-02-12T21:01:24;103552.00;;;16.19;60.65
78016;BME280;67223;51.102;5.882;2023-02-12T21:03:52;103556.69;;;16.15;60.76
78016;BME280;67223;51.102;5.882;2023-02-12T21:06:19;103557.75;;;16.13;60.28
78016;BME280;67223;51.102;5.882;2023-02-12T21:08:45;103555.22;;;16.10;60.57
78016;BME280;67223;51.102;5.882;2023-02-12T21:11:16;103557.06;;;16.09;60.42
78016;BME280;67223;51.102;5.882;2023-02-12T21:13:45;103558.13;;;16.07;60.50
78016;BME280;67223;51.102;5.882;2023-02-12T21:16:22;103558.22;;;16.05;60.58
78016;BME280;67223;51.102;5.882;2023-02-12T21:18:48;103562.84;;;16.03;60.99
78016;BME280;67223;51.102;5.882;2023-02-12T21:21:20;103558.50;;;16.01;61.38
78016;BME280;67223;51.102;5.882;2023-02-12T21:23:46;103555.88;;;15.99;61.90
78016;BME280;67223;51.102;5.882;2023-02-12T21:26:14;103559.56;;;15.98;60.97
78016;BME280;67223;51.102;5.882;2023-02-12T21:28:42;103555.22;;;15.96;61.42
78016;BME280;67223;51.102;5.882;2023-02-12T21:31:16;103547.22;;;15.94;61.92
78016;BME280;67223;51.102;5.882;2023-02-12T21:33:43;103547.41;;;15.91;62.10
78016;BME280;67223;51.102;5.882;2023-02-12T21:36:13;103543.94;;;15.89;61.56
78016;BME280;67223;51.102;5.882;2023-02-12T21:38:40;103547.59;;;15.88;62.01
78016;BME280;67223;51.102;5.882;2023-02-12T21:41:14;103547.78;;;15.85;62.13
78016;BME280;67223;51.102;5.882;2023-02-12T21:43:43;103555.09;;;15.83;61.78
78016;BME280;67223;51.102;5.882;2023-02-12T21:46:08;103557.88;;;15.81;62.18
78016;BME280;67223;51.102;5.882;2023-02-12T21:48:35;103557.09;;;15.79;62.51
78016;BME280;67223;51.102;5.882;2023-02-12T21:51:01;103553.63;;;15.77;62.61
78016;BME280;67223;51.102;5.882;2023-02-12T21:53:27;103547.66;;;15.72;62.36
78016;BME280;67223;51.102;5.882;2023-02-12T21:55:53;103545.91;;;15.71;62.99